createdAt,value
2018-06-04T00:00:43.140Z,88.01
2018-06-04T00:01:43.146Z,88.01
2018-06-04T00:03:04.158Z,88.01
2018-06-04T00:03:43.153Z,88.68
2018-06-04T00:04:43.158Z,88.59
2018-06-04T00:05:43.160Z,88.68
2018-06-04T00:06:43.160Z,88.59
2018-06-04T00:07:43.164Z,88.59
2018-06-04T00:09:04.212Z,88.49
2018-06-04T00:09:43.168Z,88.59
2018-06-04T00:10:43.173Z,88.35
2018-06-04T00:11:43.173Z,88.97
2018-06-04T00:12:43.177Z,88.45
2018-06-04T00:13:43.178Z,89.02
2018-06-04T00:15:04.193Z,88.83
2018-06-04T00:15:43.185Z,89.02
2018-06-04T00:16:43.186Z,88.54
2018-06-04T00:17:43.192Z,89.12
2018-06-04T00:18:43.192Z,88.83
2018-06-04T00:19:43.197Z,89.12
2018-06-04T00:21:04.210Z,89.60
2018-06-04T00:21:43.223Z,89.31
2018-06-04T00:22:43.201Z,89.69
2018-06-04T00:23:43.205Z,89.50
2018-06-04T00:24:43.205Z,89.60
2018-06-04T00:25:43.217Z,89.60
2018-06-04T00:27:04.221Z,89.60
2018-06-04T00:27:43.218Z,89.40
2018-06-04T00:28:43.255Z,89.60
2018-06-04T00:29:43.222Z,89.69
2018-06-04T00:30:43.226Z,89.40
2018-06-04T00:31:43.225Z,89.60
2018-06-04T00:33:04.240Z,89.50
2018-06-04T00:33:43.231Z,89.69
2018-06-04T00:34:43.274Z,90.46
2018-06-04T00:35:43.238Z,90.08
2018-06-04T00:36:43.243Z,89.69
2018-06-04T00:37:43.249Z,90.37
2018-06-04T00:39:04.313Z,89.89
2018-06-04T00:39:43.247Z,90.27
2018-06-04T00:40:43.248Z,90.13
2018-06-04T00:41:43.253Z,89.65
2018-06-04T00:42:43.260Z,89.65
2018-06-04T00:43:43.257Z,89.84
2018-06-04T00:45:04.269Z,90.27
2018-06-04T00:45:43.265Z,90.03
2018-06-04T00:46:43.262Z,89.94
2018-06-04T00:47:43.270Z,89.84
2018-06-04T00:48:43.270Z,89.75
2018-06-04T00:49:43.270Z,90.13
2018-06-04T00:51:04.283Z,90.42
2018-06-04T00:51:43.276Z,90.22
2018-06-04T00:52:43.283Z,89.65
2018-06-04T00:53:43.288Z,90.03
2018-06-04T00:54:43.285Z,89.84
2018-06-04T00:55:43.292Z,89.65
2018-06-04T00:57:04.301Z,89.65
2018-06-04T00:57:43.298Z,89.75
2018-06-04T00:58:43.355Z,89.75
2018-06-04T00:59:43.306Z,90.03
2018-06-04T01:00:43.303Z,89.94
2018-06-04T01:01:43.305Z,89.94
2018-06-04T01:03:04.320Z,89.84
2018-06-04T01:03:43.311Z,89.84
2018-06-04T01:04:43.310Z,90.22
2018-06-04T01:05:43.315Z,90.03
2018-06-04T01:06:43.316Z,89.94
2018-06-04T01:07:43.322Z,90.03
2018-06-04T01:09:04.414Z,90.42
2018-06-04T01:09:43.931Z,90.42
2018-06-04T01:10:43.335Z,90.32
2018-06-04T01:11:43.331Z,90.13
2018-06-04T01:12:43.331Z,90.13
2018-06-04T01:13:43.328Z,89.84
2018-06-04T01:15:04.350Z,90.13
2018-06-04T01:15:43.337Z,90.61
2018-06-04T01:16:43.343Z,90.52
2018-06-04T01:17:43.343Z,90.70
2018-06-04T01:18:43.341Z,91.09
2018-06-04T01:19:43.346Z,90.52
2018-06-04T01:21:04.363Z,90.52
2018-06-04T01:21:43.352Z,90.13
2018-06-04T01:22:43.353Z,90.61
2018-06-04T01:23:43.358Z,90.70
2018-06-04T01:24:43.359Z,90.28
2018-06-04T01:25:43.362Z,90.66
2018-06-04T01:27:04.379Z,90.18
2018-06-04T01:27:43.367Z,91.24
2018-06-04T01:28:43.369Z,90.66
2018-06-04T01:29:43.371Z,90.95
2018-06-04T01:30:43.375Z,90.56
2018-06-04T01:31:43.383Z,90.75
2018-06-04T01:33:04.385Z,90.95
2018-06-04T01:33:43.387Z,91.05
2018-06-04T01:34:43.381Z,91.14
2018-06-04T01:35:43.382Z,91.42
2018-06-04T01:36:43.384Z,90.75
2018-06-04T01:37:43.388Z,91.14
2018-06-04T01:39:04.419Z,91.42
2018-06-04T01:39:43.398Z,91.24
2018-06-04T01:40:44.336Z,91.24
2018-06-04T01:41:43.398Z,91.33
2018-06-04T01:42:43.406Z,90.95
2018-06-04T01:43:43.400Z,90.95
2018-06-04T01:45:04.411Z,91.05
2018-06-04T01:45:43.409Z,90.95
2018-06-04T01:46:43.412Z,91.33
2018-06-04T01:47:43.417Z,91.24
2018-06-04T01:48:43.425Z,91.52
2018-06-04T01:49:43.418Z,91.14
2018-06-04T01:51:04.462Z,91.72
2018-06-04T01:51:43.419Z,91.52
2018-06-04T01:52:43.420Z,91.42
2018-06-04T01:53:43.434Z,91.81
2018-06-04T01:54:43.427Z,92.00
2018-06-04T01:55:43.429Z,91.81
2018-06-04T01:57:04.438Z,91.42
2018-06-04T01:57:43.433Z,91.62
2018-06-04T01:58:43.436Z,91.52
2018-06-04T01:59:43.433Z,91.52
2018-06-04T02:00:43.439Z,91.81
2018-06-04T02:01:43.453Z,91.42
2018-06-04T02:03:04.449Z,91.24
2018-06-04T02:03:43.443Z,91.33
2018-06-04T02:04:43.453Z,91.05
2018-06-04T02:05:43.449Z,90.75
2018-06-04T02:06:43.454Z,90.75
2018-06-04T02:07:43.453Z,91.14
2018-06-04T02:09:04.517Z,91.24
2018-06-04T02:09:43.456Z,91.05
2018-06-04T02:10:43.456Z,91.05
2018-06-04T02:11:43.462Z,91.14
2018-06-04T02:12:43.463Z,90.95
2018-06-04T02:13:43.460Z,90.95
2018-06-04T02:15:04.475Z,90.85
2018-06-04T02:15:43.485Z,91.05
2018-06-04T02:16:43.477Z,91.33
2018-06-04T02:17:43.479Z,91.62
2018-06-04T02:18:43.474Z,91.72
2018-06-04T02:19:43.475Z,91.62
2018-06-04T02:21:04.491Z,91.52
2018-06-04T02:21:43.480Z,91.42
2018-06-04T02:22:43.500Z,91.81
2018-06-04T02:23:43.485Z,91.52
2018-06-04T02:24:43.491Z,91.52
2018-06-04T02:25:43.501Z,91.81
2018-06-04T02:27:04.501Z,91.19
2018-06-04T02:27:43.493Z,91.52
2018-06-04T02:28:43.497Z,91.52
2018-06-04T02:29:43.499Z,91.57
2018-06-04T02:30:43.500Z,91.42
2018-06-04T02:31:43.506Z,92.15
2018-06-04T02:33:04.511Z,91.86
2018-06-04T02:33:43.520Z,91.77
2018-06-04T02:34:43.503Z,92.05
2018-06-04T02:35:43.507Z,91.57
2018-06-04T02:36:43.512Z,91.38
2018-06-04T02:37:43.520Z,91.09
2018-06-04T02:39:04.621Z,91.96
2018-06-04T02:39:43.520Z,91.96
2018-06-04T02:40:43.521Z,91.96
2018-06-04T02:41:43.523Z,91.91
2018-06-04T02:42:43.527Z,91.86
2018-06-04T02:43:43.526Z,92.24
2018-06-04T02:45:04.539Z,91.86
2018-06-04T02:45:43.539Z,92.05
2018-06-04T02:46:43.531Z,92.05
2018-06-04T02:47:43.542Z,92.24
2018-06-04T02:48:43.545Z,91.86
2018-06-04T02:49:43.542Z,91.86
2018-06-04T02:51:04.549Z,91.77
2018-06-04T02:51:43.547Z,91.86
2018-06-04T02:52:43.544Z,91.96
2018-06-04T02:53:43.593Z,92.05
2018-06-04T02:54:43.546Z,91.86
2018-06-04T02:55:43.546Z,91.96
2018-06-04T02:57:04.561Z,91.57
2018-06-04T02:57:43.551Z,91.96
2018-06-04T02:58:43.684Z,91.86
2018-06-04T02:59:43.558Z,91.96
2018-06-04T03:00:43.569Z,91.57
2018-06-04T03:01:43.559Z,91.67
2018-06-04T03:03:04.566Z,91.96
2018-06-04T03:03:43.561Z,91.77
2018-06-04T03:04:43.566Z,91.77
2018-06-04T03:05:43.566Z,92.15
2018-06-04T03:06:43.566Z,92.05
2018-06-04T03:07:43.572Z,92.05
2018-06-04T03:09:04.623Z,91.96
2018-06-04T03:09:43.576Z,92.05
2018-06-04T03:10:43.579Z,91.96
2018-06-04T03:11:43.578Z,91.86
2018-06-04T03:12:43.575Z,92.34
2018-06-04T03:13:43.580Z,92.24
2018-06-04T03:15:04.599Z,92.44
2018-06-04T03:15:43.585Z,92.34
2018-06-04T03:16:43.587Z,92.24
2018-06-04T03:17:43.586Z,92.34
2018-06-04T03:18:43.597Z,91.86
2018-06-04T03:19:43.591Z,91.96
2018-06-04T03:21:04.602Z,92.15
2018-06-04T03:21:43.593Z,92.05
2018-06-04T03:22:43.592Z,92.24
2018-06-04T03:23:43.595Z,92.24
2018-06-04T03:24:43.600Z,92.24
2018-06-04T03:25:43.600Z,92.05
2018-06-04T03:27:04.606Z,92.34
2018-06-04T03:27:43.609Z,92.24
2018-06-04T03:28:43.660Z,92.05
2018-06-04T03:29:43.610Z,92.44
2018-06-04T03:30:43.610Z,92.44
2018-06-04T03:31:43.616Z,93.11
2018-06-04T03:33:04.624Z,92.05
2018-06-04T03:33:43.613Z,93.11
2018-06-04T03:34:43.620Z,93.11
2018-06-04T03:35:43.618Z,93.11
2018-06-04T03:36:43.617Z,92.72
2018-06-04T03:37:43.621Z,92.82
2018-06-04T03:39:04.720Z,93.01
2018-06-04T03:39:43.624Z,93.21
2018-06-04T03:40:43.627Z,92.24
2018-06-04T03:41:43.626Z,92.44
2018-06-04T03:42:43.628Z,92.24
2018-06-04T03:43:43.880Z,92.24
2018-06-04T03:45:04.642Z,92.24
2018-06-04T03:45:43.632Z,92.15
2018-06-04T03:46:43.638Z,91.96
2018-06-04T03:47:43.636Z,92.72
2018-06-04T03:48:43.647Z,93.01
2018-06-04T03:49:43.648Z,92.63
2018-06-04T03:51:04.654Z,92.05
2018-06-04T03:51:43.642Z,92.72
2018-06-04T03:52:43.643Z,92.82
2018-06-04T03:53:43.648Z,92.82
2018-06-04T03:54:43.649Z,92.44
2018-06-04T03:55:43.647Z,92.54
2018-06-04T03:57:04.661Z,91.86
2018-06-04T03:57:43.652Z,91.96
2018-06-04T03:58:43.657Z,92.44
2018-06-04T03:59:43.657Z,92.24
2018-06-04T04:00:43.660Z,92.15
2018-06-04T04:01:43.670Z,92.24
2018-06-04T04:03:04.672Z,92.44
2018-06-04T04:03:43.661Z,92.54
2018-06-04T04:04:43.667Z,92.44
2018-06-04T04:05:43.665Z,92.15
2018-06-04T04:06:43.671Z,92.24
2018-06-04T04:07:43.673Z,92.44
2018-06-04T04:09:04.720Z,92.54
2018-06-04T04:09:43.684Z,92.24
2018-06-04T04:10:43.697Z,91.96
2018-06-04T04:11:43.675Z,92.72
2018-06-04T04:12:43.680Z,92.82
2018-06-04T04:13:43.681Z,92.63
2018-06-04T04:15:04.689Z,92.91
2018-06-04T04:15:43.690Z,92.82
2018-06-04T04:16:43.685Z,92.96
2018-06-04T04:17:43.690Z,92.68
2018-06-04T04:18:43.689Z,93.06
2018-06-04T04:19:43.691Z,92.48
2018-06-04T04:21:04.705Z,92.10
2018-06-04T04:21:43.699Z,92.29
2018-06-04T04:22:43.700Z,92.19
2018-06-04T04:23:43.699Z,92.29
2018-06-04T04:24:43.702Z,92.10
2018-06-04T04:25:43.706Z,91.72
2018-06-04T04:27:04.712Z,91.72
2018-06-04T04:27:43.707Z,91.81
2018-06-04T04:28:43.712Z,91.24
2018-06-04T04:29:43.714Z,90.75
2018-06-04T04:30:43.716Z,91.14
2018-06-04T04:31:43.711Z,91.14
2018-06-04T04:33:04.731Z,90.95
2018-06-04T04:33:43.721Z,91.24
2018-06-04T04:34:43.727Z,91.05
2018-06-04T04:35:43.725Z,91.91
2018-06-04T04:36:43.726Z,91.05
2018-06-04T04:37:43.736Z,90.75
2018-06-04T04:39:04.831Z,90.95
2018-06-04T04:39:43.730Z,91.05
2018-06-04T04:40:43.733Z,91.14
2018-06-04T04:41:43.745Z,90.85
2018-06-04T04:42:43.737Z,90.66
2018-06-04T04:43:43.739Z,90.52
2018-06-04T04:45:04.752Z,90.90
2018-06-04T04:45:44.607Z,90.52
2018-06-04T04:46:43.788Z,91.09
2018-06-04T04:47:43.782Z,90.90
2018-06-04T04:48:43.749Z,90.22
2018-06-04T04:49:43.746Z,89.75
2018-06-04T04:51:05.580Z,89.36
2018-06-04T04:51:43.944Z,89.75
2018-06-04T04:52:43.787Z,89.55
2018-06-04T04:53:43.764Z,89.65
2018-06-04T04:54:43.764Z,89.31
2018-06-04T04:55:43.764Z,89.60
2018-06-04T04:57:04.780Z,89.12
2018-06-04T04:57:43.772Z,89.69
2018-06-04T04:58:43.770Z,89.12
2018-06-04T04:59:43.797Z,88.73
2018-06-04T05:00:43.785Z,88.83
2018-06-04T05:01:43.786Z,88.49
2018-06-04T05:03:04.790Z,88.39
2018-06-04T05:03:43.837Z,88.01
2018-06-04T05:04:43.792Z,87.53
2018-06-04T05:05:43.792Z,87.82
2018-06-04T05:06:43.791Z,87.24
2018-06-04T05:07:43.793Z,86.80
2018-06-04T05:09:04.921Z,86.04
2018-06-04T05:09:43.801Z,85.40
2018-06-04T05:10:43.798Z,84.25
2018-06-04T05:11:43.804Z,83.42
2018-06-04T05:12:43.810Z,83.19
2018-06-04T05:13:43.811Z,83.96
2018-06-04T05:15:04.828Z,84.25
2018-06-04T05:15:43.819Z,84.34
2018-06-04T05:16:43.821Z,83.62
2018-06-04T05:17:43.824Z,82.31
2018-06-04T05:18:43.834Z,82.21
2018-06-04T05:19:43.827Z,81.06
2018-06-04T05:21:04.846Z,81.73
2018-06-04T05:21:43.836Z,81.73
2018-06-04T05:22:43.840Z,81.63
2018-06-04T05:23:43.841Z,80.96
2018-06-04T05:24:43.848Z,81.20
2018-06-04T05:25:43.848Z,79.94
2018-06-04T05:27:05.133Z,80.14
2018-06-04T05:27:43.860Z,79.94
2018-06-04T05:28:43.859Z,79.66
2018-06-04T05:29:43.865Z,79.41
2018-06-04T05:30:43.870Z,79.21
2018-06-04T05:31:43.891Z,79.11
2018-06-04T05:33:04.886Z,78.88
2018-06-04T05:33:43.878Z,79.75
2018-06-04T05:34:43.883Z,79.66
2018-06-04T05:35:43.888Z,79.94
2018-06-04T05:36:43.889Z,78.92
2018-06-04T05:37:43.892Z,79.94
2018-06-04T05:39:04.922Z,79.85
2018-06-04T05:39:43.903Z,79.75
2018-06-04T05:40:43.904Z,79.94
2018-06-04T05:41:43.910Z,79.85
2018-06-04T05:42:43.918Z,79.85
2018-06-04T05:43:43.917Z,79.94
2018-06-04T05:45:04.934Z,79.02
2018-06-04T05:45:43.933Z,79.21
2018-06-04T05:46:43.936Z,79.41
2018-06-04T05:47:43.938Z,78.83
2018-06-04T05:48:43.940Z,78.15
2018-06-04T05:49:43.948Z,78.09
2018-06-04T05:51:04.961Z,77.61
2018-06-04T05:51:43.951Z,77.61
2018-06-04T05:52:43.956Z,76.93
2018-06-04T05:53:43.981Z,77.03
2018-06-04T05:54:43.965Z,77.07
2018-06-04T05:55:43.967Z,76.20
2018-06-04T05:57:04.985Z,75.18
2018-06-04T05:57:43.981Z,74.51
2018-06-04T05:58:44.068Z,73.38
2018-06-04T05:59:43.985Z,72.45
2018-06-04T06:00:43.995Z,72.22
2018-06-04T06:01:44.037Z,73.09
2018-06-04T06:03:05.008Z,73.15
2018-06-04T06:03:44.005Z,74.12
2018-06-04T06:04:44.009Z,73.93
2018-06-04T06:05:44.017Z,74.89
2018-06-04T06:06:44.024Z,74.85
2018-06-04T06:07:44.025Z,75.67
2018-06-04T06:09:05.127Z,75.37
2018-06-04T06:09:44.057Z,74.99
2018-06-04T06:10:44.037Z,75.27
2018-06-04T06:11:44.041Z,74.35
2018-06-04T06:12:44.063Z,73.48
2018-06-04T06:13:44.051Z,72.71
2018-06-04T06:15:05.085Z,73.67
2018-06-04T06:15:44.063Z,73.96
2018-06-04T06:16:44.065Z,74.06
2018-06-04T06:17:44.073Z,74.06
2018-06-04T06:18:44.073Z,74.35
2018-06-04T06:19:44.115Z,73.93
2018-06-04T06:21:05.099Z,74.41
2018-06-04T06:21:44.084Z,74.51
2018-06-04T06:22:44.095Z,74.89
2018-06-04T06:23:44.092Z,74.99
2018-06-04T06:24:44.100Z,75.18
2018-06-04T06:25:44.108Z,75.09
2018-06-04T06:27:05.122Z,74.60
2018-06-04T06:27:44.118Z,74.99
2018-06-04T06:28:44.805Z,74.99
2018-06-04T06:29:44.133Z,76.05
2018-06-04T06:30:44.133Z,76.50
2018-06-04T06:31:44.140Z,76.10
2018-06-04T06:33:05.152Z,76.72
2018-06-04T06:33:44.153Z,76.50
2018-06-04T06:34:44.149Z,76.50
2018-06-04T06:35:44.157Z,77.55
2018-06-04T06:36:44.164Z,78.23
2018-06-04T06:37:44.188Z,78.86
2018-06-04T06:39:05.234Z,79.83
2018-06-04T06:39:44.191Z,80.12
2018-06-04T06:40:44.178Z,80.22
2018-06-04T06:41:44.183Z,79.93
2018-06-04T06:42:44.194Z,79.64
2018-06-04T06:43:44.189Z,80.31
2018-06-04T06:45:05.207Z,80.35
2018-06-04T06:45:44.202Z,80.51
2018-06-04T06:46:44.203Z,80.35
2018-06-04T06:47:44.210Z,79.97
2018-06-04T06:48:44.229Z,79.97
2018-06-04T06:49:44.219Z,79.87
2018-06-04T06:51:05.397Z,79.87
2018-06-04T06:51:44.269Z,79.87
2018-06-04T06:52:44.276Z,79.77
2018-06-04T06:53:44.240Z,79.87
2018-06-04T06:54:44.243Z,79.39
2018-06-04T06:55:44.464Z,79.49
2018-06-04T06:57:05.280Z,79.49
2018-06-04T06:57:44.731Z,79.77
2018-06-04T06:58:44.371Z,79.87
2018-06-04T06:59:44.265Z,80.16
2018-06-04T07:00:44.268Z,80.35
2018-06-04T07:01:44.305Z,80.35
2018-06-04T07:03:05.293Z,80.54
2018-06-04T07:03:44.279Z,80.54
2018-06-04T07:04:44.301Z,80.45
2018-06-04T07:05:44.289Z,80.45
2018-06-04T07:06:44.293Z,80.54
2018-06-04T07:07:44.301Z,80.54
2018-06-04T07:09:05.325Z,80.93
2018-06-04T07:09:44.307Z,80.93
2018-06-04T07:10:44.329Z,80.93
2018-06-04T07:11:44.314Z,80.74
2018-06-04T07:12:44.377Z,80.74
2018-06-04T07:13:44.330Z,81.70
2018-06-04T07:15:05.339Z,80.74
2018-06-04T07:15:44.339Z,80.93
2018-06-04T07:16:44.338Z,81.12
2018-06-04T07:17:44.345Z,80.93
2018-06-04T07:18:44.362Z,81.51
2018-06-04T07:19:44.607Z,81.02
2018-06-04T07:21:05.375Z,81.02
2018-06-04T07:21:44.356Z,80.69
2018-06-04T07:22:44.361Z,81.99
2018-06-04T07:23:44.366Z,81.66
2018-06-04T07:24:44.371Z,82.14
2018-06-04T07:25:44.376Z,81.70
2018-06-04T07:27:05.389Z,81.80
2018-06-04T07:27:44.384Z,81.41
2018-06-04T07:28:44.471Z,81.70
2018-06-04T07:29:44.392Z,81.32
2018-06-04T07:30:44.397Z,82.76
2018-06-04T07:31:44.402Z,81.99
2018-06-04T07:33:05.419Z,81.70
2018-06-04T07:33:44.419Z,81.99
2018-06-04T07:34:44.429Z,81.90
2018-06-04T07:35:44.420Z,81.90
2018-06-04T07:36:44.468Z,81.80
2018-06-04T07:37:44.430Z,81.90
2018-06-04T07:39:05.534Z,81.99
2018-06-04T07:39:44.439Z,82.48
2018-06-04T07:40:44.451Z,82.48
2018-06-04T07:41:44.443Z,82.57
2018-06-04T07:42:44.447Z,82.38
2018-06-04T07:43:44.450Z,82.57
2018-06-04T07:45:05.468Z,81.80
2018-06-04T07:45:44.467Z,84.21
2018-06-04T07:46:44.465Z,83.72
2018-06-04T07:47:44.469Z,79.12
2018-06-04T07:48:44.482Z,78.06
2018-06-04T07:49:44.485Z,78.15
2018-06-04T07:51:05.490Z,78.92
2018-06-04T07:51:44.502Z,78.34
2018-06-04T07:52:44.489Z,78.89
2018-06-04T07:53:44.495Z,79.66
2018-06-04T07:54:44.499Z,79.66
2018-06-04T07:55:44.696Z,79.66
2018-06-04T07:57:05.872Z,79.95
2018-06-04T07:57:44.520Z,80.14
2018-06-04T07:58:44.518Z,80.53
2018-06-04T07:59:44.518Z,80.05
2018-06-04T08:00:44.531Z,79.95
2018-06-04T08:01:44.534Z,80.33
2018-06-04T08:03:05.555Z,80.24
2018-06-04T08:03:44.596Z,80.33
2018-06-04T08:04:44.541Z,80.33
2018-06-04T08:05:44.546Z,80.62
2018-06-04T08:06:44.552Z,80.53
2018-06-04T08:07:44.559Z,80.53
2018-06-04T08:09:05.743Z,80.33
2018-06-04T08:09:44.783Z,79.95
2018-06-04T08:10:44.757Z,80.14
2018-06-04T08:11:44.579Z,80.62
2018-06-04T08:12:44.580Z,79.95
2018-06-04T08:13:44.589Z,80.53
2018-06-04T08:15:05.599Z,79.95
2018-06-04T08:15:45.124Z,80.62
2018-06-04T08:16:47.321Z,80.38
2018-06-04T08:17:44.602Z,80.38
2018-06-04T08:18:44.608Z,79.99
2018-06-04T08:19:44.614Z,78.92
2018-06-04T08:21:05.633Z,79.41
2018-06-04T08:21:46.724Z,79.22
2018-06-04T08:22:45.513Z,79.31
2018-06-04T08:23:44.667Z,79.50
2018-06-04T08:24:44.632Z,79.12
2018-06-04T08:25:44.638Z,79.12
2018-06-04T08:27:05.654Z,79.02
2018-06-04T08:27:44.686Z,79.45
2018-06-04T08:28:44.677Z,79.22
2018-06-04T08:29:44.659Z,78.77
2018-06-04T08:30:44.661Z,78.19
2018-06-04T08:31:44.671Z,76.49
2018-06-04T08:33:05.682Z,75.56
2018-06-04T08:33:44.675Z,73.60
2018-06-04T08:34:44.682Z,71.73
2018-06-04T08:35:45.052Z,67.83
2018-06-04T08:36:45.558Z,65.79
2018-06-04T08:37:44.716Z,63.20
2018-06-04T08:39:06.126Z,61.77
2018-06-04T08:39:44.705Z,60.44
2018-06-04T08:40:44.714Z,59.69
2018-06-04T08:41:44.977Z,59.06
2018-06-04T08:42:44.984Z,57.24
2018-06-04T08:43:44.730Z,55.63
2018-06-04T08:45:05.757Z,54.00
2018-06-04T08:45:44.798Z,53.42
2018-06-04T08:46:44.758Z,51.78
2018-06-04T08:47:45.395Z,50.24
2018-06-04T08:48:44.766Z,50.46
2018-06-04T08:49:44.778Z,50.42
2018-06-04T08:51:05.809Z,51.63
2018-06-04T08:51:44.797Z,53.14
2018-06-04T08:52:44.796Z,54.19
2018-06-04T08:53:44.834Z,55.30
2018-06-04T08:54:44.825Z,56.45
2018-06-04T08:55:44.827Z,57.00
2018-06-04T08:57:05.852Z,58.04
2018-06-04T08:57:45.084Z,59.05
2018-06-04T08:58:44.842Z,58.21
2018-06-04T08:59:44.850Z,58.01
2018-06-04T09:00:44.855Z,58.98
2018-06-04T09:01:44.867Z,58.07
2018-06-04T09:03:06.057Z,55.86
2018-06-04T09:03:44.882Z,54.13
2018-06-04T09:04:44.887Z,53.21
2018-06-04T09:05:44.897Z,52.48
2018-06-04T09:06:44.898Z,50.98
2018-06-04T09:07:44.917Z,48.38
2018-06-04T09:09:06.185Z,46.01
2018-06-04T09:09:44.929Z,44.46
2018-06-04T09:10:44.936Z,42.91
2018-06-04T09:11:44.940Z,42.05
2018-06-04T09:12:44.950Z,40.80
2018-06-04T09:13:44.961Z,39.95
2018-06-04T09:15:05.977Z,40.17
2018-06-04T09:15:45.013Z,38.92
2018-06-04T09:16:44.987Z,37.85
2018-06-04T09:17:44.994Z,37.95
2018-06-04T09:18:45.051Z,38.13
2018-06-04T09:19:45.029Z,40.23
2018-06-04T09:21:06.039Z,40.06
2018-06-04T09:21:45.105Z,40.23
2018-06-04T09:22:45.845Z,39.39
2018-06-04T09:23:45.060Z,38.23
2018-06-04T09:24:45.481Z,37.48
2018-06-04T09:25:45.083Z,36.82
2018-06-04T09:27:06.106Z,36.15
2018-06-04T09:27:45.097Z,35.30
2018-06-04T09:28:45.118Z,34.53
2018-06-04T09:29:45.120Z,33.85
2018-06-04T09:30:45.125Z,32.31
2018-06-04T09:31:45.177Z,32.31
2018-06-04T09:33:06.167Z,31.59
2018-06-04T09:33:45.176Z,32.44
2018-06-04T09:34:45.181Z,32.26
2018-06-04T09:35:45.187Z,31.68
2018-06-04T09:36:45.202Z,32.62
2018-06-04T09:37:45.213Z,33.23
2018-06-04T09:39:06.360Z,32.70
2018-06-04T09:39:45.237Z,33.58
2018-06-04T09:40:45.253Z,33.58
2018-06-04T09:41:45.262Z,33.39
2018-06-04T09:42:45.286Z,32.84
2018-06-04T09:43:45.283Z,32.18
2018-06-04T09:45:06.307Z,30.91
2018-06-04T09:45:45.311Z,31.01
2018-06-04T09:46:45.332Z,29.95
2018-06-04T09:47:45.366Z,29.66
2018-06-04T09:48:45.386Z,28.70
2018-06-04T09:49:45.362Z,28.21
2018-06-04T09:51:06.386Z,27.80
2018-06-04T09:51:45.401Z,29.61
2018-06-04T09:52:45.528Z,31.03
2018-06-04T09:53:45.425Z,32.67
2018-06-04T09:54:45.447Z,34.39
2018-06-04T09:55:45.517Z,35.06
2018-06-04T09:57:06.460Z,37.07
2018-06-04T09:57:45.539Z,37.80
2018-06-04T09:58:45.498Z,37.32
2018-06-04T09:59:45.500Z,36.75
2018-06-04T10:00:45.583Z,35.99
2018-06-04T10:01:45.599Z,34.84
2018-06-04T10:03:06.532Z,34.17
2018-06-04T10:03:45.586Z,34.05
2018-06-04T10:04:45.619Z,33.28
2018-06-04T10:05:45.609Z,32.90
2018-06-04T10:06:45.591Z,32.24
2018-06-04T10:07:45.601Z,31.01
2018-06-04T10:09:06.610Z,29.95
2018-06-04T10:09:45.679Z,28.79
2018-06-04T10:10:45.687Z,27.62
2018-06-04T10:11:45.656Z,27.02
2018-06-04T10:12:45.667Z,26.84
2018-06-04T10:13:45.694Z,27.42
2018-06-04T10:15:06.731Z,27.23
2018-06-04T10:15:45.711Z,28.01
2018-06-04T10:16:45.701Z,28.38
2018-06-04T10:17:45.717Z,29.61
2018-06-04T10:18:45.728Z,29.80
2018-06-04T10:19:45.745Z,29.54
2018-06-04T10:21:06.799Z,28.58
2018-06-04T10:21:45.812Z,27.12
2018-06-04T10:22:45.783Z,26.54
2018-06-04T10:23:45.797Z,25.97
2018-06-04T10:24:45.815Z,24.69
2018-06-04T10:25:45.827Z,24.52
2018-06-04T10:27:06.863Z,22.94
2018-06-04T10:27:45.895Z,22.56
2018-06-04T10:28:45.909Z,21.99
2018-06-04T10:29:45.887Z,21.00
2018-06-04T10:30:45.907Z,22.33
2018-06-04T10:31:45.913Z,24.56
2018-06-04T10:33:06.948Z,27.25
2018-06-04T10:33:45.996Z,29.00
2018-06-04T10:34:45.960Z,30.44
2018-06-04T10:35:45.982Z,31.03
2018-06-04T10:36:45.990Z,32.05
2018-06-04T10:37:46.023Z,33.13
2018-06-04T10:39:07.123Z,32.84
2018-06-04T10:39:46.028Z,33.98
2018-06-04T10:40:46.063Z,34.46
2018-06-04T10:41:46.054Z,35.02
2018-06-04T10:42:46.073Z,36.08
2018-06-04T10:43:46.078Z,37.04
2018-06-04T10:45:07.103Z,36.49
2018-06-04T10:45:46.137Z,35.14
2018-06-04T10:46:46.271Z,34.18
2018-06-04T10:47:46.126Z,33.43
2018-06-04T10:48:46.142Z,32.18
2018-06-04T10:49:46.150Z,30.73
2018-06-04T10:51:07.173Z,29.60
2018-06-04T10:51:46.175Z,28.42
2018-06-04T10:52:46.201Z,28.13
2018-06-04T10:53:46.200Z,28.91
2018-06-04T10:54:46.639Z,29.09
2018-06-04T10:55:46.222Z,28.48
2018-06-04T10:57:07.900Z,28.55
2018-06-04T10:57:46.251Z,30.28
2018-06-04T10:58:46.308Z,31.07
2018-06-04T10:59:46.282Z,30.32
2018-06-04T11:00:46.292Z,29.55
2018-06-04T11:01:46.301Z,29.17
2018-06-04T11:03:07.329Z,28.61
2018-06-04T11:03:46.331Z,27.45
2018-06-04T11:04:46.350Z,26.48
2018-06-04T11:05:46.416Z,27.17
2018-06-04T11:06:46.370Z,26.57
2018-06-04T11:07:46.383Z,25.60
2018-06-04T11:09:07.477Z,24.63
2018-06-04T11:09:46.460Z,23.07
2018-06-04T11:10:46.444Z,22.30
2018-06-04T11:11:46.443Z,21.22
2018-06-04T11:12:46.492Z,21.78
2018-06-04T11:13:46.474Z,22.85
2018-06-04T11:15:07.602Z,22.67
2018-06-04T11:15:46.673Z,22.69
2018-06-04T11:16:46.514Z,22.13
2018-06-04T11:17:46.527Z,21.61
2018-06-04T11:18:47.472Z,21.04
2018-06-04T11:19:47.433Z,20.47
2018-06-04T11:21:07.599Z,19.78
2018-06-04T11:21:46.719Z,19.79
2018-06-04T11:22:46.838Z,19.60
2018-06-04T11:23:46.628Z,19.51
2018-06-04T11:24:47.213Z,19.60
2018-06-04T11:25:46.709Z,20.48
2018-06-04T11:27:07.693Z,21.24
2018-06-04T11:27:46.958Z,23.08
2018-06-04T11:28:46.716Z,24.99
2018-06-04T11:29:46.736Z,27.11
2018-06-04T11:30:46.773Z,26.93
2018-06-04T11:31:46.986Z,25.48
2018-06-04T11:33:08.413Z,25.46
2018-06-04T11:33:50.427Z,26.14
2018-06-04T11:34:46.824Z,25.67
2018-06-04T11:35:46.831Z,24.21
2018-06-04T11:36:46.842Z,22.96
2018-06-04T11:37:46.855Z,22.67
2018-06-04T11:39:08.034Z,22.95
2018-06-04T11:39:46.875Z,23.33
2018-06-04T11:40:46.925Z,23.72
2018-06-04T11:41:46.908Z,23.33
2018-06-04T11:42:46.926Z,22.86
2018-06-04T11:43:46.987Z,21.31
2018-06-04T11:45:07.959Z,20.73
2018-06-04T11:45:46.972Z,20.15
2018-06-04T11:46:46.992Z,19.67
2018-06-04T11:47:47.005Z,19.88
2018-06-04T11:48:47.012Z,19.20
2018-06-04T11:49:47.021Z,18.82
2018-06-04T11:51:08.209Z,18.52
2018-06-04T11:51:47.061Z,18.04
2018-06-04T11:52:47.071Z,17.65
2018-06-04T11:53:47.090Z,17.54
2018-06-04T11:54:47.106Z,17.73
2018-06-04T11:55:47.166Z,18.41
2018-06-04T11:57:08.158Z,18.52
2018-06-04T11:57:47.236Z,18.50
2018-06-04T11:58:47.231Z,19.46
2018-06-04T11:59:47.191Z,20.42
2018-06-04T12:00:47.213Z,21.29
2018-06-04T12:01:48.921Z,21.77
2018-06-04T12:03:08.254Z,22.93
2018-06-04T12:03:47.259Z,24.56
2018-06-04T12:04:47.273Z,26.12
2018-06-04T12:05:47.288Z,26.97
2018-06-04T12:06:47.316Z,28.12
2018-06-04T12:07:47.317Z,29.25
2018-06-04T12:09:08.777Z,29.63
2018-06-04T12:09:47.347Z,30.70
2018-06-04T12:10:47.357Z,30.80
2018-06-04T12:11:47.437Z,32.06
2018-06-04T12:12:47.378Z,32.56
2018-06-04T12:13:47.425Z,31.33
2018-06-04T12:15:08.667Z,30.84
2018-06-04T12:15:47.418Z,31.20
2018-06-04T12:16:47.429Z,33.12
2018-06-04T12:17:47.442Z,34.84
2018-06-04T12:18:47.454Z,36.26
2018-06-04T12:19:47.469Z,37.41
2018-06-04T12:21:08.491Z,37.71
2018-06-04T12:21:47.486Z,36.94
2018-06-04T12:22:47.497Z,37.32
2018-06-04T12:23:47.512Z,37.60
2018-06-04T12:24:47.521Z,38.38
2018-06-04T12:25:47.531Z,39.06
2018-06-04T12:27:08.581Z,38.79
2018-06-04T12:27:47.555Z,36.88
2018-06-04T12:28:47.562Z,34.88
2018-06-04T12:29:47.573Z,32.66
2018-06-04T12:30:47.588Z,32.40
2018-06-04T12:31:47.604Z,31.89
2018-06-04T12:33:08.618Z,32.38
2018-06-04T12:33:47.811Z,30.84
2018-06-04T12:34:47.623Z,30.08
2018-06-04T12:35:47.626Z,29.03
2018-06-04T12:36:47.648Z,27.96
2018-06-04T12:37:47.653Z,27.40
2018-06-04T12:39:08.698Z,26.64
2018-06-04T12:39:47.680Z,25.48
2018-06-04T12:40:47.693Z,24.40
2018-06-04T12:41:47.701Z,24.03
2018-06-04T12:42:47.711Z,23.36
2018-06-04T12:43:47.755Z,22.99
2018-06-04T12:45:08.761Z,21.81
2018-06-04T12:45:47.748Z,22.58
2018-06-04T12:46:48.058Z,22.95
2018-06-04T12:47:48.298Z,24.30
2018-06-04T12:48:47.869Z,25.27
2018-06-04T12:49:47.802Z,26.51
2018-06-04T12:51:08.955Z,27.47
2018-06-04T12:51:47.824Z,27.96
2018-06-04T12:52:47.841Z,27.78